Time;durP1;ratioP1;P1;durP2;ratioP2;P2;SDS_P1;SDS_P2;PMS_P1;PMS_P2;Temp;Humidity;BMP_temperature;BMP_pressure;BME280_temperature;BME280_humidity;BME280_pressure;Samples;Min_cycle;Max_cycle;Signal;HPM_P1;HPM_P2
2023/05/29 00:00:18;;;;;;;11.18;3.25;;;16.40;58.80;;;;;;5023233;28;20066;-66
2023/05/29 00:02:44;;;;;;;12.55;3.70;;;16.40;58.80;;;;;;5029168;28;20061;-66
2023/05/29 00:05:12;;;;;;;14.90;3.55;;;16.40;58.90;;;;;;5013844;28;20073;-66
2023/05/29 00:07:39;;;;;;;13.10;3.10;;;16.30;58.80;;;;;;5017634;28;20533;-67
2023/05/29 00:10:06;;;;;;;10.65;2.90;;;16.30;58.80;;;;;;5026586;28;20048;-66
2023/05/29 00:12:32;;;;;;;9.00;2.58;;;16.30;58.80;;;;;;5023959;28;20044;-66
2023/05/29 00:14:58;;;;;;;11.43;2.83;;;16.20;58.80;;;;;;5029402;28;20021;-67
2023/05/29 00:17:24;;;;;;;8.52;2.47;;;16.20;58.90;;;;;;5031663;28;20068;-67
2023/05/29 00:19:50;;;;;;;9.70;2.58;;;16.10;58.90;;;;;;5024169;28;20112;-67
2023/05/29 00:22:16;;;;;;;10.13;2.60;;;16.10;58.90;;;;;;5020823;28;20113;-67
2023/05/29 00:24:42;;;;;;;11.98;3.15;;;16.10;58.90;;;;;;5029353;28;20033;-67
2023/05/29 00:27:09;;;;;;;13.13;3.00;;;16.10;58.90;;;;;;5027914;28;20038;-67
2023/05/29 00:29:37;;;;;;;14.70;3.33;;;16.10;59.00;;;;;;5013671;28;20433;-66
2023/05/29 00:32:05;;;;;;;17.38;2.78;;;16.10;59.00;;;;;;5020305;28;20014;-66
2023/05/29 00:34:31;;;;;;;10.80;2.83;;;16.00;59.00;;;;;;5022483;28;20500;-67
2023/05/29 00:36:57;;;;;;;12.77;3.03;;;16.00;58.90;;;;;;5026074;28;20026;-66
2023/05/29 00:39:23;;;;;;;10.05;1.95;;;16.00;58.90;;;;;;5022816;28;20041;-67
2023/05/29 00:41:51;;;;;;;14.95;3.15;;;15.90;58.80;;;;;;5033266;28;20025;-67
2023/05/29 00:44:18;;;;;;;11.23;2.78;;;15.90;58.80;;;;;;5031318;28;20029;-67
2023/05/29 00:46:46;;;;;;;13.05;3.30;;;15.90;58.70;;;;;;5034441;28;20200;-67
2023/05/29 00:49:12;;;;;;;11.50;2.67;;;15.90;58.60;;;;;;5029464;28;20026;-67
2023/05/29 00:51:38;;;;;;;14.88;2.97;;;15.80;58.50;;;;;;5032445;28;20066;-67
2023/05/29 00:54:07;;;;;;;10.60;2.78;;;15.80;58.40;;;;;;5019448;28;20080;-67
2023/05/29 00:56:35;;;;;;;12.85;2.75;;;15.80;58.40;;;;;;5033247;28;20030;-67
2023/05/29 00:59:01;;;;;;;7.38;2.22;;;15.70;58.30;;;;;;5026854;28;20335;-67
2023/05/29 01:01:28;;;;;;;7.50;2.33;;;15.70;58.40;;;;;;5040330;28;20033;-67
2023/05/29 01:04:00;;;;;;;11.57;2.97;;;15.70;59.00;;;;;;5049044;28;20035;-66
2023/05/29 01:06:26;;;;;;;11.45;2.50;;;15.60;58.30;;;;;;5042286;28;20099;-66
2023/05/29 01:08:52;;;;;;;10.63;2.90;;;15.60;58.30;;;;;;5033031;28;20025;-66
2023/05/29 01:11:46;;;;;;;9.50;2.22;;;15.60;58.30;;;;;;5034361;28;20045;-67
2023/05/29 01:14:23;;;;;;;8.88;2.13;;;15.60;58.40;;;;;;5031251;28;20365;-67
2023/05/29 01:17:00;;;;;;;12.10;2.13;;;15.50;58.40;;;;;;5038673;28;20057;-67
2023/05/29 01:19:52;;;;;;;12.43;2.75;;;15.50;58.40;;;;;;5030797;28;20451;-66
2023/05/29 01:22:41;;;;;;;9.00;2.75;;;15.50;58.50;;;;;;5030172;28;20027;-66
2023/05/29 01:25:28;;;;;;;9.10;2.53;;;15.50;58.50;;;;;;5026988;28;20038;-66
2023/05/29 01:27:55;;;;;;;9.93;2.63;;;15.50;58.50;;;;;;5040301;28;20064;-67
2023/05/29 01:30:23;;;;;;;11.85;2.38;;;15.40;58.60;;;;;;5033209;28;20032;-67
2023/05/29 01:32:51;;;;;;;12.75;2.58;;;15.30;58.60;;;;;;5028261;28;20726;-67
2023/05/29 01:35:16;;;;;;;10.98;2.53;;;15.30;59.30;;;;;;5035216;28;20080;-66
2023/05/29 01:37:42;;;;;;;12.20;2.38;;;15.30;58.80;;;;;;5037565;28;20377;-67
2023/05/29 01:40:09;;;;;;;9.65;2.35;;;15.30;58.80;;;;;;5030932;28;20030;-67
2023/05/29 01:42:35;;;;;;;13.65;2.85;;;15.30;58.90;;;;;;5036914;28;20036;-67
2023/05/29 01:45:01;;;;;;;9.18;2.95;;;15.30;58.90;;;;;;5032141;28;20037;-67
2023/05/29 01:47:27;;;;;;;8.90;2.58;;;15.30;58.90;;;;;;5034992;28;20022;-66
2023/05/29 01:49:54;;;;;;;12.55;2.88;;;15.30;58.90;;;;;;5032280;28;20462;-67
2023/05/29 01:52:21;;;;;;;10.32;2.53;;;15.20;59.10;;;;;;5034568;28;20041;-66
2023/05/29 01:54:46;;;;;;;15.85;3.88;;;15.20;59.80;;;;;;5016680;28;20022;-67
2023/05/29 01:57:13;;;;;;;8.93;2.22;;;15.10;59.20;;;;;;5013752;28;20026;-66
2023/05/29 01:59:38;;;;;;;12.65;2.70;;;15.10;59.30;;;;;;5042240;28;20405;-66
2023/05/29 02:02:08;;;;;;;11.75;2.55;;;15.10;59.30;;;;;;5034056;28;20128;-67
2023/05/29 02:04:34;;;;;;;12.05;2.63;;;15.10;59.40;;;;;;5036558;28;20434;-67
2023/05/29 02:07:00;;;;;;;11.68;2.50;;;15.10;59.50;;;;;;5034377;28;20079;-67
2023/05/29 02:09:26;;;;;;;13.45;2.47;;;15.10;59.50;;;;;;5045007;28;20092;-67
2023/05/29 02:11:52;;;;;;;13.20;2.40;;;15.00;59.60;;;;;;5013550;28;20124;-67
2023/05/29 02:14:18;;;;;;;9.60;2.65;;;15.00;59.70;;;;;;5040188;28;20056;-67
2023/05/29 02:16:44;;;;;;;9.60;2.28;;;15.00;59.70;;;;;;5033841;28;20115;-67
2023/05/29 02:19:10;;;;;;;12.43;3.00;;;15.00;59.80;;;;;;5029064;28;20518;-66
2023/05/29 02:21:39;;;;;;;12.40;2.67;;;14.90;59.80;;;;;;5037795;28;20034;-67
2023/05/29 02:24:05;;;;;;;11.52;2.28;;;15.00;59.90;;;;;;5042228;28;20041;-67
2023/05/29 02:26:33;;;;;;;13.70;2.72;;;14.90;59.90;;;;;;5035791;28;20029;-67
2023/05/29 02:28:59;;;;;;;12.82;3.22;;;14.90;60.00;;;;;;5040710;28;20162;-67
2023/05/29 02:31:26;;;;;;;9.88;2.40;;;14.90;60.00;;;;;;5039592;28;20021;-67
2023/05/29 02:33:52;;;;;;;13.80;2.80;;;14.90;60.10;;;;;;5041751;28;20335;-66
2023/05/29 02:36:17;;;;;;;9.18;2.33;;;14.90;60.10;;;;;;5051464;28;20211;-67
2023/05/29 02:38:43;;;;;;;11.40;2.70;;;14.90;60.20;;;;;;5033143;28;20446;-67
2023/05/29 02:41:09;;;;;;;9.88;2.75;;;14.80;60.20;;;;;;5039804;28;20116;-66
2023/05/29 02:43:35;;;;;;;10.80;2.92;;;14.80;60.30;;;;;;5017892;28;20083;-66
2023/05/29 02:46:00;;;;;;;8.63;2.15;;;14.80;60.30;;;;;;5046995;28;20106;-66
2023/05/29 02:48:26;;;;;;;8.88;2.22;;;14.80;60.40;;;;;;5037170;28;20052;-67
2023/05/29 02:50:52;;;;;;;10.77;2.60;;;14.70;60.30;;;;;;5029294;28;20021;-67
2023/05/29 02:53:18;;;;;;;12.93;2.78;;;14.70;60.40;;;;;;5037225;28;20157;-67
2023/05/29 02:55:44;;;;;;;13.45;2.47;;;14.70;60.50;;;;;;5048331;28;20106;-67
2023/05/29 02:58:11;;;;;;;10.10;2.65;;;14.70;60.50;;;;;;5019171;28;20033;-67
2023/05/29 03:00:37;;;;;;;11.70;2.58;;;14.70;60.50;;;;;;5032737;28;20052;-66
2023/05/29 03:03:04;;;;;;;9.27;2.33;;;14.70;60.60;;;;;;5037166;28;20052;-66
2023/05/29 03:05:30;;;;;;;11.35;2.65;;;14.70;60.60;;;;;;5037617;28;20045;-67
2023/05/29 03:07:56;;;;;;;8.60;2.08;;;14.60;60.60;;;;;;5031864;28;20033;-67
2023/05/29 03:10:22;;;;;;;12.65;3.20;;;14.60;60.60;;;;;;5040941;28;20032;-67
2023/05/29 03:12:47;;;;;;;9.95;2.20;;;14.60;60.70;;;;;;5054971;28;20430;-66
2023/05/29 03:15:14;;;;;;;12.32;2.60;;;14.60;60.70;;;;;;5039970;28;20032;-66
2023/05/29 03:17:40;;;;;;;11.68;3.05;;;14.50;60.80;;;;;;5037348;28;20129;-66
2023/05/29 03:20:11;;;;;;;12.85;2.65;;;14.50;60.80;;;;;;5040697;28;20021;-67
2023/05/29 03:22:36;;;;;;;12.60;2.72;;;14.50;60.80;;;;;;5038254;28;20571;-67
2023/05/29 03:25:03;;;;;;;11.30;2.38;;;14.50;60.90;;;;;;5039634;28;20403;-66
2023/05/29 03:27:30;;;;;;;9.57;2.42;;;14.50;60.90;;;;;;5040781;28;20088;-67
2023/05/29 03:30:05;;;;;;;9.60;2.67;;;14.40;61.00;;;;;;5035074;28;20421;-67
2023/05/29 03:32:32;;;;;;;12.15;2.58;;;14.40;61.10;;;;;;5037087;28;20083;-67
2023/05/29 03:34:58;;;;;;;11.88;2.70;;;14.40;61.20;;;;;;5041550;28;20124;-66
2023/05/29 03:37:23;;;;;;;11.82;2.70;;;14.40;61.30;;;;;;5041819;28;20220;-67
2023/05/29 03:39:50;;;;;;;14.68;3.15;;;14.30;61.30;;;;;;5039158;28;20463;-67
2023/05/29 03:42:18;;;;;;;10.15;2.92;;;14.30;61.40;;;;;;5035436;28;20052;-67
2023/05/29 03:44:43;;;;;;;12.32;3.03;;;14.30;61.40;;;;;;5031976;28;20067;-67
2023/05/29 03:47:10;;;;;;;14.85;3.03;;;14.30;61.50;;;;;;5024225;28;20394;-67
2023/05/29 03:49:36;;;;;;;10.85;2.67;;;14.30;61.50;;;;;;5031484;28;20033;-66
2023/05/29 03:52:05;;;;;;;13.48;3.35;;;14.30;61.50;;;;;;5034624;28;20065;-67
2023/05/29 03:54:30;;;;;;;11.60;2.83;;;14.20;61.50;;;;;;5022791;28;20032;-67
2023/05/29 03:56:57;;;;;;;10.88;2.35;;;14.20;61.60;;;;;;5035435;28;20033;-66
2023/05/29 03:59:27;;;;;;;9.90;2.20;;;14.20;61.60;;;;;;5048763;28;20029;-67
2023/05/29 04:01:53;;;;;;;8.77;2.50;;;14.20;61.60;;;;;;5027252;28;20104;-66
2023/05/29 04:04:20;;;;;;;9.38;2.38;;;14.20;61.60;;;;;;5041166;28;20319;-67
2023/05/29 04:06:45;;;;;;;10.55;3.00;;;14.20;61.60;;;;;;5029795;28;20115;-66
2023/05/29 04:09:11;;;;;;;9.95;2.58;;;14.20;61.50;;;;;;5038135;28;20032;-67
2023/05/29 04:11:38;;;;;;;10.15;2.42;;;14.20;61.60;;;;;;5038367;28;20023;-66
2023/05/29 04:14:04;;;;;;;12.73;2.75;;;14.20;61.60;;;;;;5045189;28;20028;-66
2023/05/29 04:16:30;;;;;;;11.57;2.90;;;14.20;61.60;;;;;;5031675;28;20096;-66
2023/05/29 04:18:56;;;;;;;10.32;2.72;;;14.20;61.60;;;;;;5028769;28;20065;-66
2023/05/29 04:21:25;;;;;;;11.73;3.00;;;14.10;61.60;;;;;;5036936;28;20056;-66
2023/05/29 04:23:52;;;;;;;9.77;2.80;;;14.20;61.70;;;;;;5047618;28;20017;-67
2023/05/29 04:26:20;;;;;;;6.22;2.10;;;14.20;61.60;;;;;;5032285;28;20030;-67
2023/05/29 04:28:46;;;;;;;10.25;3.05;;;14.20;61.60;;;;;;5045967;28;20370;-67
2023/05/29 04:31:14;;;;;;;10.32;2.42;;;14.20;61.60;;;;;;5036020;28;20025;-66
2023/05/29 04:33:41;;;;;;;13.77;2.78;;;14.20;61.60;;;;;;5050195;28;20013;-67
2023/05/29 04:36:08;;;;;;;14.07;2.72;;;14.20;61.50;;;;;;5041927;28;20037;-67
2023/05/29 04:38:36;;;;;;;11.52;2.20;;;14.20;61.50;;;;;;5040955;28;20361;-67
2023/05/29 04:41:03;;;;;;;13.02;2.83;;;14.30;61.50;;;;;;5029278;28;20018;-67
2023/05/29 04:43:28;;;;;;;11.23;2.65;;;14.30;61.40;;;;;;5046241;28;20338;-67
2023/05/29 04:46:05;;;;;;;11.77;3.00;;;14.20;61.30;;;;;;5045605;28;20017;-66
2023/05/29 04:48:34;;;;;;;11.27;2.80;;;14.20;61.40;;;;;;5040775;28;20036;-67
2023/05/29 04:51:00;;;;;;;16.77;2.42;;;14.30;61.40;;;;;;5014848;28;20041;-67
2023/05/29 04:53:26;;;;;;;15.25;3.30;;;14.30;61.30;;;;;;5042731;28;20044;-66
2023/05/29 04:55:52;;;;;;;11.18;2.65;;;14.30;61.30;;;;;;5031296;28;20036;-68
2023/05/29 04:58:18;;;;;;;9.60;2.42;;;14.30;61.20;;;;;;5037587;28;20119;-67
2023/05/29 05:00:44;;;;;;;11.50;2.88;;;14.30;61.20;;;;;;5029430;28;20025;-67
2023/05/29 05:03:10;;;;;;;15.07;2.78;;;14.40;61.30;;;;;;5005513;28;20022;-67
2023/05/29 05:05:36;;;;;;;11.18;3.33;;;14.40;61.20;;;;;;5020268;28;20022;-66
2023/05/29 05:08:02;;;;;;;11.48;3.20;;;14.40;61.10;;;;;;5021876;28;20022;-67
2023/05/29 05:10:28;;;;;;;12.65;3.30;;;14.50;61.00;;;;;;5022880;28;20076;-66
2023/05/29 05:12:54;;;;;;;11.27;3.10;;;14.50;60.90;;;;;;5020923;28;20045;-67
2023/05/29 05:15:21;;;;;;;10.38;2.38;;;14.50;60.80;;;;;;5018486;28;20100;-66
2023/05/29 05:17:47;;;;;;;13.55;2.92;;;14.60;60.60;;;;;;5021543;28;20047;-68
2023/05/29 05:20:13;;;;;;;12.20;2.50;;;14.70;60.40;;;;;;5040199;28;20433;-68
2023/05/29 05:22:40;;;;;;;11.98;3.28;;;14.80;60.10;;;;;;5032084;28;20136;-67
2023/05/29 05:25:06;;;;;;;11.05;2.80;;;14.90;60.00;;;;;;5031268;28;20112;-67
2023/05/29 05:27:33;;;;;;;11.52;2.42;;;14.90;59.90;;;;;;5036344;28;20082;-67
2023/05/29 05:30:00;;;;;;;11.15;2.65;;;15.00;59.70;;;;;;5055806;28;20357;-67
2023/05/29 05:32:26;;;;;;;12.45;2.80;;;15.00;59.50;;;;;;5028122;28;20039;-67
2023/05/29 05:34:59;;;;;;;11.65;2.28;;;15.10;59.40;;;;;;5040268;28;20025;-67
2023/05/29 05:37:25;;;;;;;9.80;2.85;;;15.20;59.30;;;;;;5055878;28;20396;-68
2023/05/29 05:39:53;;;;;;;13.57;2.95;;;15.20;59.00;;;;;;5047703;28;20032;-67
2023/05/29 05:42:19;;;;;;;9.38;2.17;;;15.30;58.90;;;;;;5056493;28;20029;-67
2023/05/29 05:44:57;;;;;;;10.18;2.10;;;15.30;58.70;;;;;;5043378;28;20040;-67
2023/05/29 05:47:24;;;;;;;12.88;2.38;;;15.40;58.50;;;;;;5049487;28;20375;-67
2023/05/29 05:49:51;;;;;;;9.18;2.53;;;15.50;58.90;;;;;;5027728;28;20033;-67
2023/05/29 05:52:17;;;;;;;9.95;2.50;;;15.40;58.10;;;;;;5039755;28;20080;-67
2023/05/29 05:54:43;;;;;;;9.73;2.65;;;15.50;58.10;;;;;;5046992;28;20079;-67
2023/05/29 05:57:11;;;;;;;9.85;2.67;;;15.50;58.10;;;;;;5038076;28;20449;-67
2023/05/29 05:59:37;;;;;;;14.07;2.50;;;15.60;58.60;;;;;;5025727;28;20083;-67
2023/05/29 06:02:04;;;;;;;9.77;2.65;;;15.70;57.80;;;;;;5038789;28;20104;-67
2023/05/29 06:04:30;;;;;;;12.88;2.63;;;15.80;57.60;;;;;;5028936;28;20120;-67
2023/05/29 06:06:56;;;;;;;9.95;1.98;;;15.90;57.30;;;;;;5040365;28;20091;-67
2023/05/29 06:09:22;;;;;;;7.70;2.50;;;16.10;57.10;;;;;;5027496;28;20522;-68
2023/05/29 06:11:48;;;;;;;10.63;2.28;;;16.20;56.80;;;;;;5034742;28;20072;-67
2023/05/29 06:14:15;;;;;;;9.65;2.25;;;16.30;56.50;;;;;;5041342;28;20021;-67
2023/05/29 06:16:42;;;;;;;13.15;2.38;;;16.40;56.30;;;;;;5035605;28;20512;-67
2023/05/29 06:19:10;;;;;;;9.13;2.22;;;16.50;56.10;;;;;;5008817;28;20038;-67
2023/05/29 06:21:49;;;;;;;9.68;1.90;;;16.60;56.00;;;;;;5028333;28;20446;-67
2023/05/29 06:24:15;;;;;;;6.75;1.73;;;16.70;55.80;;;;;;5051209;28;20557;-68
2023/05/29 06:26:41;;;;;;;10.40;2.13;;;16.80;55.50;;;;;;5013782;28;20022;-68
2023/05/29 06:29:08;;;;;;;10.02;2.13;;;16.90;55.20;;;;;;5010236;28;20037;-66
2023/05/29 06:31:34;;;;;;;9.63;2.45;;;17.00;55.00;;;;;;5031492;28;20021;-67
2023/05/29 06:34:00;;;;;;;10.00;2.50;;;17.10;54.80;;;;;;5038411;28;20060;-66
2023/05/29 06:36:26;;;;;;;9.57;2.20;;;17.10;54.50;;;;;;5013768;28;20438;-68
2023/05/29 06:38:52;;;;;;;9.57;2.15;;;17.30;54.30;;;;;;5027552;28;20029;-69
2023/05/29 06:41:18;;;;;;;9.65;2.42;;;17.40;53.90;;;;;;5028353;28;20025;-68
2023/05/29 06:43:44;;;;;;;11.07;2.25;;;17.50;53.60;;;;;;5032551;28;20069;-64
2023/05/29 06:46:10;;;;;;;12.32;2.17;;;17.50;53.30;;;;;;5025845;28;20034;-69
2023/05/29 06:48:36;;;;;;;10.70;1.98;;;17.70;53.00;;;;;;5014020;28;20018;-68
2023/05/29 06:51:08;;;;;;;9.65;2.45;;;17.80;52.60;;;;;;5032807;28;20021;-68
2023/05/29 06:53:39;;;;;;;10.13;2.92;;;17.90;52.20;;;;;;5030532;28;20180;-68
2023/05/29 06:56:07;;;;;;;9.07;1.92;;;18.00;52.10;;;;;;5034266;28;20070;-68
2023/05/29 06:58:33;;;;;;;14.20;3.30;;;18.10;51.90;;;;;;5026579;28;20021;-67
2023/05/29 07:01:00;;;;;;;10.55;2.30;;;18.20;51.70;;;;;;5017836;28;20059;-68
2023/05/29 07:03:33;;;;;;;9.93;2.65;;;18.30;51.50;;;;;;5030101;28;20022;-67
2023/05/29 07:06:00;;;;;;;6.60;1.52;;;18.40;51.10;;;;;;5041852;28;20131;-69
2023/05/29 07:08:27;;;;;;;10.55;2.17;;;18.60;50.80;;;;;;5032388;28;20109;-71
2023/05/29 07:10:53;;;;;;;9.48;2.50;;;18.70;50.80;;;;;;5020592;28;20067;-70
2023/05/29 07:13:20;;;;;;;7.53;2.15;;;18.90;50.50;;;;;;5030282;28;20169;-69
2023/05/29 07:15:47;;;;;;;12.07;2.25;;;19.00;50.00;;;;;;5040375;28;20120;-69
2023/05/29 07:18:13;;;;;;;5.97;1.70;;;19.10;49.80;;;;;;5036677;28;20454;-68
2023/05/29 07:20:39;;;;;;;10.27;2.20;;;19.20;49.50;;;;;;5032785;28;20107;-69
2023/05/29 07:23:05;;;;;;;10.15;2.22;;;19.20;49.20;;;;;;5033194;28;20026;-67
2023/05/29 07:25:32;;;;;;;8.55;2.10;;;19.40;49.10;;;;;;5037237;28;20043;-68
2023/05/29 07:27:58;;;;;;;7.22;2.22;;;19.60;48.90;;;;;;5048540;28;20032;-68
2023/05/29 07:30:24;;;;;;;8.55;1.85;;;19.70;48.50;;;;;;5025849;28;20040;-67
2023/05/29 07:32:52;;;;;;;9.15;2.22;;;19.70;48.30;;;;;;5012596;28;20014;-68
2023/05/29 07:35:18;;;;;;;10.38;2.20;;;19.90;48.30;;;;;;5027922;28;20044;-69
2023/05/29 07:37:44;;;;;;;10.18;2.17;;;20.00;48.00;;;;;;5027763;28;20025;-69
2023/05/29 07:40:13;;;;;;;8.55;1.98;;;20.20;47.70;;;;;;5025992;28;20022;-69
2023/05/29 07:43:05;;;;;;;10.93;2.30;;;20.30;47.40;;;;;;5029414;28;20048;-68
2023/05/29 07:45:42;;;;;;;8.20;2.28;;;20.40;47.30;;;;;;5014582;28;20083;-68
2023/05/29 07:48:08;;;;;;;8.93;2.10;;;20.50;47.30;;;;;;5022870;28;20041;-69
2023/05/29 07:50:34;;;;;;;9.63;2.28;;;20.60;47.20;;;;;;5029649;28;20052;-68
2023/05/29 07:53:00;;;;;;;11.10;2.22;;;20.70;47.10;;;;;;5028141;28;20049;-67
2023/05/29 07:55:27;;;;;;;8.90;2.63;;;20.70;47.10;;;;;;5031588;28;20014;-67
2023/05/29 07:57:53;;;;;;;7.72;2.08;;;20.70;47.10;;;;;;5036159;28;20083;-68
2023/05/29 08:00:19;;;;;;;11.70;2.17;;;20.80;47.00;;;;;;5015583;28;20034;-68
2023/05/29 08:02:45;;;;;;;8.70;2.55;;;20.90;46.90;;;;;;5039559;28;20477;-69
2023/05/29 08:05:39;;;;;;;10.32;2.10;;;21.00;46.40;;;;;;5047662;28;20416;-69
2023/05/29 08:08:12;;;;;;;11.37;2.43;;;21.10;46.30;;;;;;5030573;28;20018;-69
2023/05/29 08:10:39;;;;;;;11.23;2.38;;;21.20;46.10;;;;;;5026716;28;20030;-68
2023/05/29 08:13:05;;;;;;;9.48;2.67;;;21.20;46.00;;;;;;5030910;28;20021;-69
2023/05/29 08:15:32;;;;;;;9.07;2.15;;;21.20;45.90;;;;;;5013158;28;20043;-69
2023/05/29 08:17:58;;;;;;;7.55;2.28;;;21.30;45.80;;;;;;5033119;28;20446;-69
2023/05/29 08:20:24;;;;;;;8.90;1.83;;;21.20;45.60;;;;;;5031738;28;20045;-68
2023/05/29 08:22:50;;;;;;;10.43;2.28;;;21.30;45.70;;;;;;5033012;28;20021;-68
2023/05/29 08:25:15;;;;;;;9.30;2.10;;;21.30;45.60;;;;;;5021286;28;20378;-68
2023/05/29 08:27:41;;;;;;;6.55;2.08;;;21.40;45.60;;;;;;5033298;28;20098;-70
2023/05/29 08:30:07;;;;;;;6.97;2.03;;;21.50;45.50;;;;;;5030415;28;20127;-68
2023/05/29 08:32:33;;;;;;;8.57;2.15;;;21.50;45.30;;;;;;5027075;28;20045;-69
2023/05/29 08:34:59;;;;;;;7.97;1.95;;;21.50;45.20;;;;;;5024568;28;20026;-69
2023/05/29 08:37:25;;;;;;;9.43;2.30;;;21.50;45.00;;;;;;5030887;28;20036;-69
2023/05/29 08:39:50;;;;;;;9.70;2.30;;;21.50;44.80;;;;;;5032109;28;20025;-69
2023/05/29 08:42:33;;;;;;;8.40;1.92;;;21.50;44.80;;;;;;5032153;28;21736;-69
2023/05/29 08:45:04;;;;;;;8.45;2.08;;;21.50;44.70;;;;;;5027438;28;20120;-69
2023/05/29 08:47:33;;;;;;;7.53;2.38;;;21.50;44.70;;;;;;5019957;28;20040;-69
2023/05/29 08:50:00;;;;;;;6.57;2.15;;;21.50;44.70;;;;;;5025100;28;20030;-69
2023/05/29 08:52:29;;;;;;;8.93;2.70;;;21.60;44.70;;;;;;5032310;28;20033;-69
2023/05/29 08:54:56;;;;;;;9.63;2.20;;;21.70;44.60;;;;;;5042239;28;20462;-69
2023/05/29 08:57:24;;;;;;;7.10;2.20;;;21.80;44.40;;;;;;5029422;28;20116;-69
2023/05/29 08:59:52;;;;;;;8.63;2.17;;;21.80;44.30;;;;;;5032113;28;20412;-70
2023/05/29 09:02:17;;;;;;;8.13;2.42;;;21.90;44.20;;;;;;5047772;28;20031;-70
2023/05/29 09:04:52;;;;;;;10.35;3.15;;;22.10;44.10;;;;;;5029622;28;20419;-69
2023/05/29 09:07:19;;;;;;;8.65;2.30;;;22.10;43.90;;;;;;5028229;28;20374;-69
2023/05/29 09:09:48;;;;;;;9.38;2.42;;;22.10;43.50;;;;;;5035170;28;20544;-68
2023/05/29 09:12:14;;;;;;;10.07;2.40;;;22.00;43.40;;;;;;5045407;28;20134;-69
2023/05/29 09:14:42;;;;;;;8.23;2.45;;;22.00;43.50;;;;;;5030143;28;20030;-68
2023/05/29 09:17:09;;;;;;;13.38;2.38;;;22.00;43.40;;;;;;5030013;28;20038;-69
2023/05/29 09:19:36;;;;;;;8.80;2.55;;;22.00;43.50;;;;;;5024566;28;20034;-68
2023/05/29 09:22:06;;;;;;;8.63;2.13;;;22.10;43.60;;;;;;5037952;28;20040;-68
2023/05/29 09:24:33;;;;;;;9.85;2.17;;;22.20;43.40;;;;;;5016607;28;20033;-69
2023/05/29 09:27:00;;;;;;;12.82;2.47;;;22.20;43.20;;;;;;5039257;28;20061;-69
2023/05/29 09:29:46;;;;;;;8.77;1.73;;;22.30;43.20;;;;;;5020861;28;20454;-69
2023/05/29 09:32:15;;;;;;;8.02;2.30;;;22.40;43.00;;;;;;5038780;28;20049;-69
2023/05/29 09:34:42;;;;;;;8.95;2.15;;;22.40;43.00;;;;;;5043001;28;20021;-69
2023/05/29 09:37:11;;;;;;;7.43;1.98;;;22.50;42.80;;;;;;5035141;28;20032;-69
2023/05/29 09:39:51;;;;;;;7.22;2.00;;;22.50;42.90;;;;;;5025065;28;20442;-69
2023/05/29 09:42:17;;;;;;;9.52;2.17;;;22.60;42.90;;;;;;5036490;28;20033;-69
2023/05/29 09:44:48;;;;;;;8.20;2.38;;;22.70;42.90;;;;;;5044702;28;20159;-69
2023/05/29 09:47:17;;;;;;;7.47;2.38;;;22.80;42.70;;;;;;5037036;28;20044;-69
2023/05/29 09:49:43;;;;;;;8.15;2.33;;;22.90;42.60;;;;;;5032040;28;20116;-69
2023/05/29 09:52:15;;;;;;;8.68;2.65;;;23.00;42.40;;;;;;5036153;28;20030;-68
2023/05/29 09:54:48;;;;;;;7.95;2.33;;;23.00;42.20;;;;;;5046247;28;20026;-69
2023/05/29 09:57:16;;;;;;;10.50;2.35;;;22.90;42.20;;;;;;5031741;28;20026;-68
2023/05/29 09:59:45;;;;;;;8.05;2.55;;;22.80;42.40;;;;;;5023219;28;20046;-68
2023/05/29 10:02:13;;;;;;;6.68;2.03;;;22.90;42.50;;;;;;5009337;28;20026;-68
2023/05/29 10:04:43;;;;;;;9.32;2.42;;;22.90;42.60;;;;;;5041022;28;20029;-68
2023/05/29 10:07:31;;;;;;;8.37;2.03;;;22.90;42.70;;;;;;5009879;28;20120;-68
2023/05/29 10:10:03;;;;;;;10.10;2.22;;;23.00;42.60;;;;;;5031400;28;20037;-68
2023/05/29 10:12:30;;;;;;;8.63;2.38;;;23.10;42.60;;;;;;5025857;28;20069;-70
2023/05/29 10:14:58;;;;;;;8.90;2.53;;;23.10;42.70;;;;;;5033173;28;20030;-69
2023/05/29 10:17:30;;;;;;;9.00;2.80;;;23.20;42.50;;;;;;5019954;28;20030;-69
2023/05/29 10:20:00;;;;;;;8.38;2.67;;;23.20;42.00;;;;;;5033384;28;20052;-69
2023/05/29 10:22:28;;;;;;;7.82;2.28;;;23.10;42.30;;;;;;5032019;28;20041;-69
2023/05/29 10:24:56;;;;;;;10.27;2.35;;;23.10;42.30;;;;;;5032861;28;20036;-70
2023/05/29 10:27:23;;;;;;;9.40;2.92;;;23.20;42.20;;;;;;5034124;28;20025;-69
2023/05/29 10:30:27;;;;;;;8.32;2.10;;;23.20;42.10;;;;;;5028257;28;20037;-70
2023/05/29 10:33:26;;;;;;;8.13;2.30;;;23.20;41.50;;;;;;5012654;28;20436;-69
2023/05/29 10:36:09;;;;;;;8.48;2.35;;;23.30;41.10;;;;;;5027925;28;20117;-70
2023/05/29 10:38:35;;;;;;;7.75;2.58;;;23.40;41.20;;;;;;5030382;28;20088;-69
2023/05/29 10:41:26;;;;;;;6.03;1.95;;;23.50;41.10;;;;;;5033041;28;20022;-68
2023/05/29 10:44:00;;;;;;;8.93;2.20;;;23.60;41.00;;;;;;5030848;28;20179;-70
2023/05/29 10:46:48;;;;;;;9.25;2.20;;;23.60;41.00;;;;;;5029056;28;20057;-69
2023/05/29 10:49:18;;;;;;;7.10;2.40;;;23.50;40.70;;;;;;5025691;28;20049;-69
2023/05/29 10:51:44;;;;;;;11.02;2.33;;;23.50;40.50;;;;;;5025898;28;20104;-69
2023/05/29 10:54:10;;;;;;;10.20;2.55;;;23.40;40.30;;;;;;5033765;28;20117;-69
2023/05/29 10:56:37;;;;;;;6.25;2.13;;;23.40;40.40;;;;;;5017431;28;20017;-69
2023/05/29 10:59:03;;;;;;;6.95;2.10;;;23.30;40.20;;;;;;5031990;28;20036;-69
2023/05/29 11:01:30;;;;;;;5.80;1.90;;;23.20;39.80;;;;;;5020769;28;20024;-69
2023/05/29 11:04:24;;;;;;;7.28;2.65;;;23.00;39.80;;;;;;5039257;28;20025;-69
2023/05/29 11:06:50;;;;;;;7.68;2.00;;;22.90;40.00;;;;;;5019039;28;20090;-69
2023/05/29 11:09:29;;;;;;;7.28;2.13;;;22.90;40.50;;;;;;5035085;28;20037;-69
2023/05/29 11:12:14;;;;;;;9.20;2.42;;;22.90;40.00;;;;;;5032694;28;20348;-69
2023/05/29 11:14:55;;;;;;;8.77;2.33;;;22.90;39.80;;;;;;5033816;28;20036;-69
2023/05/29 11:17:39;;;;;;;9.77;2.53;;;22.90;40.00;;;;;;5041430;28;20085;-69
2023/05/29 11:20:16;;;;;;;8.75;2.80;;;22.90;39.90;;;;;;5032546;28;20100;-69
2023/05/29 11:23:20;;;;;;;7.20;1.90;;;22.90;40.00;;;;;;5022538;28;20389;-69
2023/05/29 11:25:47;;;;;;;7.65;2.10;;;22.90;40.00;;;;;;4996005;28;20045;-69
2023/05/29 11:28:13;;;;;;;6.50;2.40;;;22.90;40.10;;;;;;5019120;28;20114;-69
2023/05/29 11:30:47;;;;;;;7.28;2.35;;;23.00;40.20;;;;;;5030785;28;20026;-69
2023/05/29 11:33:25;;;;;;;7.22;2.33;;;23.10;40.20;;;;;;5031732;28;20072;-69
2023/05/29 11:35:59;;;;;;;6.65;1.80;;;23.20;40.10;;;;;;5008513;28;20391;-69
2023/05/29 11:38:26;;;;;;;8.10;2.15;;;23.30;39.60;;;;;;5026181;28;20080;-69
2023/05/29 11:40:54;;;;;;;10.35;2.45;;;23.40;39.50;;;;;;5026097;28;20053;-69
2023/05/29 11:43:21;;;;;;;6.90;2.42;;;23.40;39.30;;;;;;5028430;28;20067;-70
2023/05/29 11:45:47;;;;;;;8.38;2.28;;;23.40;39.20;;;;;;5018225;28;20048;-69
2023/05/29 11:48:13;;;;;;;12.75;2.30;;;23.40;39.30;;;;;;5031187;28;20328;-69
2023/05/29 11:50:39;;;;;;;9.18;2.30;;;23.30;39.10;;;;;;5027357;28;20084;-68
2023/05/29 11:53:07;;;;;;;6.50;2.55;;;23.30;39.00;;;;;;5003738;28;20033;-69
2023/05/29 11:55:35;;;;;;;7.57;2.20;;;23.20;39.30;;;;;;5028485;28;20161;-69
2023/05/29 11:58:03;;;;;;;10.27;2.58;;;23.10;39.60;;;;;;5037333;28;20170;-69
2023/05/29 12:00:37;;;;;;;6.53;2.38;;;23.10;39.90;;;;;;5042922;28;20035;-69
2023/05/29 12:03:04;;;;;;;10.30;2.83;;;23.10;40.00;;;;;;5030538;28;20033;-69
2023/05/29 12:05:31;;;;;;;8.80;2.28;;;23.10;40.00;;;;;;5027769;28;20030;-68
2023/05/29 12:08:00;;;;;;;6.35;2.35;;;23.00;40.00;;;;;;5022303;28;20057;-69
2023/05/29 12:10:27;;;;;;;9.48;2.90;;;23.00;39.80;;;;;;5021565;28;20069;-69
2023/05/29 12:12:55;;;;;;;11.85;2.88;;;22.90;39.50;;;;;;5022292;28;20100;-68
2023/05/29 12:15:21;;;;;;;7.45;2.50;;;22.80;39.50;;;;;;5039554;28;20112;-68
2023/05/29 12:17:49;;;;;;;6.18;2.13;;;22.80;39.50;;;;;;5024903;28;20438;-69
2023/05/29 12:20:16;;;;;;;7.38;2.53;;;22.80;39.70;;;;;;5025795;28;20395;-68
2023/05/29 12:22:43;;;;;;;11.65;2.70;;;22.80;39.50;;;;;;5025084;28;20083;-69
2023/05/29 12:25:16;;;;;;;8.32;3.08;;;22.80;39.60;;;;;;5011009;28;20025;-69
2023/05/29 12:27:46;;;;;;;8.77;2.60;;;22.90;39.70;;;;;;5025335;28;20095;-68
2023/05/29 12:30:22;;;;;;;8.27;2.53;;;23.00;40.00;;;;;;5016494;28;20403;-68
2023/05/29 12:32:51;;;;;;;10.57;3.00;;;22.90;39.80;;;;;;5023265;28;20118;-68
2023/05/29 12:35:22;;;;;;;10.25;2.53;;;22.90;39.80;;;;;;5025143;28;20454;-67
2023/05/29 12:38:11;;;;;;;8.48;2.35;;;22.90;39.70;;;;;;5018257;28;20026;-67
2023/05/29 12:40:38;;;;;;;9.35;2.50;;;22.80;39.50;;;;;;5038699;28;20026;-67
2023/05/29 12:43:06;;;;;;;11.77;2.83;;;22.70;39.50;;;;;;5027528;28;20080;-67
2023/05/29 12:45:33;;;;;;;9.30;2.85;;;22.70;39.60;;;;;;5023094;28;20129;-67
2023/05/29 12:48:10;;;;;;;8.05;2.92;;;22.60;39.80;;;;;;5033179;28;20087;-67
2023/05/29 12:50:39;;;;;;;7.93;2.65;;;22.60;39.50;;;;;;5027618;28;20033;-67